sensor_id;sensor_type;location;lat;lon;timestamp;P1;durP1;ratioP1;P2;durP2;ratioP2
62584;SDS011;48643;51.670;5.808;2023-08-12T00:00:13;7.28;;;3.38;;
62584;SDS011;48643;51.670;5.808;2023-08-12T00:02:44;5.15;;;3.22;;
62584;SDS011;48643;51.670;5.808;2023-08-12T00:05:12;6.60;;;3.40;;
62584;SDS011;48643;51.670;5.808;2023-08-12T00:07:39;5.25;;;3.15;;
62584;SDS011;48643;51.670;5.808;2023-08-12T00:10:10;5.03;;;3.03;;
62584;SDS011;48643;51.670;5.808;2023-08-12T00:12:37;5.80;;;3.20;;
62584;SDS011;48643;51.670;5.808;2023-08-12T00:15:05;5.30;;;3.13;;
62584;SDS011;48643;51.670;5.808;2023-08-12T00:17:34;6.95;;;3.25;;
62584;SDS011;48643;51.670;5.808;2023-08-12T00:20:03;4.95;;;3.17;;
62584;SDS011;48643;51.670;5.808;2023-08-12T00:22:35;6.85;;;3.20;;
62584;SDS011;48643;51.670;5.808;2023-08-12T00:25:01;5.72;;;3.30;;
62584;SDS011;48643;51.670;5.808;2023-08-12T00:27:29;4.80;;;3.20;;
62584;SDS011;48643;51.670;5.808;2023-08-12T00:29:56;4.68;;;3.20;;
62584;SDS011;48643;51.670;5.808;2023-08-12T00:32:23;6.43;;;3.30;;
62584;SDS011;48643;51.670;5.808;2023-08-12T00:34:49;4.57;;;3.08;;
62584;SDS011;48643;51.670;5.808;2023-08-12T00:37:16;5.05;;;3.28;;
62584;SDS011;48643;51.670;5.808;2023-08-12T00:39:44;7.88;;;3.38;;
62584;SDS011;48643;51.670;5.808;2023-08-12T00:42:11;5.63;;;3.20;;
62584;SDS011;48643;51.670;5.808;2023-08-12T00:44:38;5.55;;;3.30;;
62584;SDS011;48643;51.670;5.808;2023-08-12T00:47:05;5.75;;;3.40;;
62584;SDS011;48643;51.670;5.808;2023-08-12T00:49:32;5.20;;;3.45;;
62584;SDS011;48643;51.670;5.808;2023-08-12T00:51:59;7.22;;;3.30;;
62584;SDS011;48643;51.670;5.808;2023-08-12T00:54:26;5.43;;;3.38;;
62584;SDS011;48643;51.670;5.808;2023-08-12T00:56:54;5.55;;;3.33;;
62584;SDS011;48643;51.670;5.808;2023-08-12T00:59:21;6.00;;;3.30;;
62584;SDS011;48643;51.670;5.808;2023-08-12T01:01:49;5.78;;;3.47;;
62584;SDS011;48643;51.670;5.808;2023-08-12T01:04:16;5.20;;;3.10;;
62584;SDS011;48643;51.670;5.808;2023-08-12T01:06:43;7.20;;;3.78;;
62584;SDS011;48643;51.670;5.808;2023-08-12T01:09:10;4.80;;;3.20;;
62584;SDS011;48643;51.670;5.808;2023-08-12T01:14:23;5.93;;;3.42;;
62584;SDS011;48643;51.670;5.808;2023-08-12T01:16:57;6.32;;;3.45;;
62584;SDS011;48643;51.670;5.808;2023-08-12T01:22:00;4.47;;;3.40;;
62584;SDS011;48643;51.670;5.808;2023-08-12T01:24:33;5.97;;;3.50;;
62584;SDS011;48643;51.670;5.808;2023-08-12T01:27:04;5.75;;;3.40;;
62584;SDS011;48643;51.670;5.808;2023-08-12T01:29:32;6.38;;;3.35;;
62584;SDS011;48643;51.670;5.808;2023-08-12T01:32:21;7.43;;;3.50;;
62584;SDS011;48643;51.670;5.808;2023-08-12T01:34:58;6.15;;;3.30;;
62584;SDS011;48643;51.670;5.808;2023-08-12T01:37:30;6.10;;;3.30;;
62584;SDS011;48643;51.670;5.808;2023-08-12T01:39:59;6.38;;;3.80;;
62584;SDS011;48643;51.670;5.808;2023-08-12T01:42:27;5.30;;;3.53;;
62584;SDS011;48643;51.670;5.808;2023-08-12T01:44:55;5.30;;;3.25;;
62584;SDS011;48643;51.670;5.808;2023-08-12T01:47:24;5.57;;;3.50;;
62584;SDS011;48643;51.670;5.808;2023-08-12T01:49:52;5.72;;;3.70;;
62584;SDS011;48643;51.670;5.808;2023-08-12T01:52:19;6.78;;;3.53;;
62584;SDS011;48643;51.670;5.808;2023-08-12T01:54:45;7.05;;;3.40;;
62584;SDS011;48643;51.670;5.808;2023-08-12T01:57:12;5.75;;;3.50;;
62584;SDS011;48643;51.670;5.808;2023-08-12T01:59:40;5.47;;;3.42;;
62584;SDS011;48643;51.670;5.808;2023-08-12T02:02:09;6.30;;;3.80;;
62584;SDS011;48643;51.670;5.808;2023-08-12T02:04:36;5.05;;;3.25;;
62584;SDS011;48643;51.670;5.808;2023-08-12T02:07:04;6.75;;;3.85;;
62584;SDS011;48643;51.670;5.808;2023-08-12T02:09:31;5.35;;;3.60;;
62584;SDS011;48643;51.670;5.808;2023-08-12T02:11:57;7.10;;;3.70;;
62584;SDS011;48643;51.670;5.808;2023-08-12T02:14:24;6.18;;;4.00;;
62584;SDS011;48643;51.670;5.808;2023-08-12T02:16:51;5.65;;;3.50;;
62584;SDS011;48643;51.670;5.808;2023-08-12T02:19:20;6.25;;;3.65;;
62584;SDS011;48643;51.670;5.808;2023-08-12T02:21:47;6.28;;;3.70;;
62584;SDS011;48643;51.670;5.808;2023-08-12T02:24:14;5.30;;;3.60;;
62584;SDS011;48643;51.670;5.808;2023-08-12T02:26:40;6.68;;;3.70;;
62584;SDS011;48643;51.670;5.808;2023-08-12T02:29:07;5.43;;;3.75;;
62584;SDS011;48643;51.670;5.808;2023-08-12T02:31:34;6.10;;;3.80;;
62584;SDS011;48643;51.670;5.808;2023-08-12T02:34:01;5.47;;;3.63;;
62584;SDS011;48643;51.670;5.808;2023-08-12T02:36:28;5.32;;;3.30;;
62584;SDS011;48643;51.670;5.808;2023-08-12T02:38:54;7.18;;;3.85;;
62584;SDS011;48643;51.670;5.808;2023-08-12T02:41:21;5.85;;;3.45;;
62584;SDS011;48643;51.670;5.808;2023-08-12T02:43:48;6.38;;;3.47;;
62584;SDS011;48643;51.670;5.808;2023-08-12T02:46:15;5.05;;;3.70;;
62584;SDS011;48643;51.670;5.808;2023-08-12T02:48:42;5.28;;;3.50;;
62584;SDS011;48643;51.670;5.808;2023-08-12T02:51:09;5.78;;;3.65;;
62584;SDS011;48643;51.670;5.808;2023-08-12T02:53:36;6.20;;;3.80;;
62584;SDS011;48643;51.670;5.808;2023-08-12T02:56:03;5.80;;;3.50;;
62584;SDS011;48643;51.670;5.808;2023-08-12T02:58:30;5.82;;;3.42;;
62584;SDS011;48643;51.670;5.808;2023-08-12T03:00:57;5.50;;;3.47;;
62584;SDS011;48643;51.670;5.808;2023-08-12T03:03:24;5.20;;;3.33;;
62584;SDS011;48643;51.670;5.808;2023-08-12T03:05:50;7.43;;;3.55;;
62584;SDS011;48643;51.670;5.808;2023-08-12T03:08:17;4.88;;;3.25;;
62584;SDS011;48643;51.670;5.808;2023-08-12T03:10:46;5.47;;;3.28;;
62584;SDS011;48643;51.670;5.808;2023-08-12T03:13:14;6.07;;;3.63;;
62584;SDS011;48643;51.670;5.808;2023-08-12T03:15:41;4.85;;;3.30;;
62584;SDS011;48643;51.670;5.808;2023-08-12T03:18:09;6.22;;;3.53;;
62584;SDS011;48643;51.670;5.808;2023-08-12T03:20:37;5.40;;;3.50;;
62584;SDS011;48643;51.670;5.808;2023-08-12T03:23:04;4.75;;;3.03;;
62584;SDS011;48643;51.670;5.808;2023-08-12T03:25:31;5.40;;;3.25;;
62584;SDS011;48643;51.670;5.808;2023-08-12T03:27:58;5.43;;;3.35;;
62584;SDS011;48643;51.670;5.808;2023-08-12T03:30:26;8.48;;;3.70;;
62584;SDS011;48643;51.670;5.808;2023-08-12T03:32:54;4.47;;;3.05;;
62584;SDS011;48643;51.670;5.808;2023-08-12T03:35:24;6.47;;;3.33;;
62584;SDS011;48643;51.670;5.808;2023-08-12T03:37:51;5.07;;;3.35;;
62584;SDS011;48643;51.670;5.808;2023-08-12T03:40:20;5.45;;;3.30;;
62584;SDS011;48643;51.670;5.808;2023-08-12T03:42:48;5.85;;;3.17;;
62584;SDS011;48643;51.670;5.808;2023-08-12T03:45:18;5.35;;;3.35;;
62584;SDS011;48643;51.670;5.808;2023-08-12T03:47:45;5.22;;;3.40;;
62584;SDS011;48643;51.670;5.808;2023-08-12T03:50:13;5.30;;;3.40;;
62584;SDS011;48643;51.670;5.808;2023-08-12T03:52:40;6.53;;;3.60;;
62584;SDS011;48643;51.670;5.808;2023-08-12T03:55:08;4.47;;;3.35;;
62584;SDS011;48643;51.670;5.808;2023-08-12T03:57:36;4.63;;;3.20;;
62584;SDS011;48643;51.670;5.808;2023-08-12T04:00:04;4.88;;;3.55;;
62584;SDS011;48643;51.670;5.808;2023-08-12T04:02:39;4.88;;;3.60;;
62584;SDS011;48643;51.670;5.808;2023-08-12T04:05:07;5.40;;;3.25;;
62584;SDS011;48643;51.670;5.808;2023-08-12T04:07:35;4.47;;;3.30;;
62584;SDS011;48643;51.670;5.808;2023-08-12T04:10:02;4.70;;;3.30;;
62584;SDS011;48643;51.670;5.808;2023-08-12T04:12:29;5.40;;;3.60;;
62584;SDS011;48643;51.670;5.808;2023-08-12T04:14:56;5.45;;;3.38;;
62584;SDS011;48643;51.670;5.808;2023-08-12T04:17:23;4.75;;;3.30;;
62584;SDS011;48643;51.670;5.808;2023-08-12T04:19:50;9.07;;;3.28;;
62584;SDS011;48643;51.670;5.808;2023-08-12T04:22:17;6.13;;;3.67;;
62584;SDS011;48643;51.670;5.808;2023-08-12T04:24:44;4.40;;;3.10;;
62584;SDS011;48643;51.670;5.808;2023-08-12T04:27:12;5.25;;;3.55;;
62584;SDS011;48643;51.670;5.808;2023-08-12T04:29:39;6.15;;;3.25;;
62584;SDS011;48643;51.670;5.808;2023-08-12T04:32:06;6.82;;;3.58;;
62584;SDS011;48643;51.670;5.808;2023-08-12T04:34:33;6.22;;;3.53;;
62584;SDS011;48643;51.670;5.808;2023-08-12T04:37:02;5.28;;;3.58;;
62584;SDS011;48643;51.670;5.808;2023-08-12T04:39:29;5.20;;;3.58;;
62584;SDS011;48643;51.670;5.808;2023-08-12T04:41:59;6.85;;;4.05;;
62584;SDS011;48643;51.670;5.808;2023-08-12T04:44:26;6.25;;;3.65;;
62584;SDS011;48643;51.670;5.808;2023-08-12T04:46:54;5.67;;;3.53;;
62584;SDS011;48643;51.670;5.808;2023-08-12T04:49:21;5.57;;;3.42;;
62584;SDS011;48643;51.670;5.808;2023-08-12T04:51:51;5.13;;;3.30;;
62584;SDS011;48643;51.670;5.808;2023-08-12T04:54:19;5.13;;;3.15;;
62584;SDS011;48643;51.670;5.808;2023-08-12T04:56:47;4.63;;;3.25;;
62584;SDS011;48643;51.670;5.808;2023-08-12T04:59:14;5.53;;;3.58;;
62584;SDS011;48643;51.670;5.808;2023-08-12T05:01:41;5.50;;;3.30;;
62584;SDS011;48643;51.670;5.808;2023-08-12T05:04:28;5.30;;;3.47;;
62584;SDS011;48643;51.670;5.808;2023-08-12T05:06:55;6.93;;;3.53;;
62584;SDS011;48643;51.670;5.808;2023-08-12T05:09:23;4.50;;;3.58;;
62584;SDS011;48643;51.670;5.808;2023-08-12T05:11:50;7.38;;;3.60;;
62584;SDS011;48643;51.670;5.808;2023-08-12T05:14:17;4.93;;;3.50;;
62584;SDS011;48643;51.670;5.808;2023-08-12T05:16:44;4.80;;;3.10;;
62584;SDS011;48643;51.670;5.808;2023-08-12T05:19:11;4.78;;;3.40;;
62584;SDS011;48643;51.670;5.808;2023-08-12T05:21:38;7.53;;;3.50;;
62584;SDS011;48643;51.670;5.808;2023-08-12T05:24:06;6.35;;;3.47;;
62584;SDS011;48643;51.670;5.808;2023-08-12T05:26:33;6.55;;;3.45;;
62584;SDS011;48643;51.670;5.808;2023-08-12T05:29:17;5.72;;;3.05;;
62584;SDS011;48643;51.670;5.808;2023-08-12T05:31:44;7.35;;;3.30;;
62584;SDS011;48643;51.670;5.808;2023-08-12T05:34:11;5.28;;;3.38;;
62584;SDS011;48643;51.670;5.808;2023-08-12T05:36:38;6.57;;;3.38;;
62584;SDS011;48643;51.670;5.808;2023-08-12T05:39:05;4.55;;;3.15;;
62584;SDS011;48643;51.670;5.808;2023-08-12T05:41:32;6.85;;;3.28;;
62584;SDS011;48643;51.670;5.808;2023-08-12T05:43:59;4.63;;;3.30;;
62584;SDS011;48643;51.670;5.808;2023-08-12T05:46:25;5.10;;;3.28;;
62584;SDS011;48643;51.670;5.808;2023-08-12T05:48:52;4.65;;;3.22;;
62584;SDS011;48643;51.670;5.808;2023-08-12T05:51:20;6.63;;;3.40;;
62584;SDS011;48643;51.670;5.808;2023-08-12T05:53:47;5.00;;;3.20;;
62584;SDS011;48643;51.670;5.808;2023-08-12T05:56:14;5.38;;;3.60;;
62584;SDS011;48643;51.670;5.808;2023-08-12T05:58:41;6.00;;;3.42;;
62584;SDS011;48643;51.670;5.808;2023-08-12T06:01:08;5.18;;;3.20;;
62584;SDS011;48643;51.670;5.808;2023-08-12T06:03:35;4.95;;;3.30;;
62584;SDS011;48643;51.670;5.808;2023-08-12T06:06:02;5.18;;;3.30;;
62584;SDS011;48643;51.670;5.808;2023-08-12T06:08:29;5.47;;;3.47;;
62584;SDS011;48643;51.670;5.808;2023-08-12T06:10:56;8.38;;;3.55;;
62584;SDS011;48643;51.670;5.808;2023-08-12T06:13:23;5.03;;;3.40;;
62584;SDS011;48643;51.670;5.808;2023-08-12T06:15:50;4.90;;;3.15;;
62584;SDS011;48643;51.670;5.808;2023-08-12T06:18:17;4.95;;;3.30;;
62584;SDS011;48643;51.670;5.808;2023-08-12T06:20:43;5.25;;;3.20;;
62584;SDS011;48643;51.670;5.808;2023-08-12T06:23:10;7.07;;;3.40;;
62584;SDS011;48643;51.670;5.808;2023-08-12T06:25:37;5.88;;;3.35;;
62584;SDS011;48643;51.670;5.808;2023-08-12T06:28:04;4.88;;;3.28;;
62584;SDS011;48643;51.670;5.808;2023-08-12T06:30:31;4.57;;;2.90;;
62584;SDS011;48643;51.670;5.808;2023-08-12T06:32:58;4.57;;;3.00;;
62584;SDS011;48643;51.670;5.808;2023-08-12T06:35:24;4.88;;;3.30;;
62584;SDS011;48643;51.670;5.808;2023-08-12T06:37:51;4.78;;;3.38;;
62584;SDS011;48643;51.670;5.808;2023-08-12T06:40:18;4.05;;;3.00;;
62584;SDS011;48643;51.670;5.808;2023-08-12T06:42:46;5.60;;;3.20;;
62584;SDS011;48643;51.670;5.808;2023-08-12T06:45:12;6.28;;;3.33;;
62584;SDS011;48643;51.670;5.808;2023-08-12T06:47:39;6.47;;;3.58;;
62584;SDS011;48643;51.670;5.808;2023-08-12T06:50:06;7.93;;;4.05;;
62584;SDS011;48643;51.670;5.808;2023-08-12T06:52:34;9.82;;;3.97;;
62584;SDS011;48643;51.670;5.808;2023-08-12T06:55:00;7.57;;;3.90;;
62584;SDS011;48643;51.670;5.808;2023-08-12T06:57:27;6.28;;;4.00;;
62584;SDS011;48643;51.670;5.808;2023-08-12T06:59:54;5.75;;;4.05;;
62584;SDS011;48643;51.670;5.808;2023-08-12T07:02:21;6.20;;;4.03;;
62584;SDS011;48643;51.670;5.808;2023-08-12T07:04:48;7.75;;;4.25;;
62584;SDS011;48643;51.670;5.808;2023-08-12T07:07:14;8.02;;;3.90;;
62584;SDS011;48643;51.670;5.808;2023-08-12T07:09:41;6.63;;;3.75;;
62584;SDS011;48643;51.670;5.808;2023-08-12T07:12:08;6.75;;;3.80;;
62584;SDS011;48643;51.670;5.808;2023-08-12T07:14:36;5.40;;;3.57;;
62584;SDS011;48643;51.670;5.808;2023-08-12T07:17:03;5.60;;;3.42;;
62584;SDS011;48643;51.670;5.808;2023-08-12T07:19:30;5.20;;;3.20;;
62584;SDS011;48643;51.670;5.808;2023-08-12T07:21:57;5.38;;;3.03;;
62584;SDS011;48643;51.670;5.808;2023-08-12T07:24:23;5.80;;;3.00;;
62584;SDS011;48643;51.670;5.808;2023-08-12T07:26:50;5.82;;;2.90;;
62584;SDS011;48643;51.670;5.808;2023-08-12T07:29:17;3.47;;;2.80;;
62584;SDS011;48643;51.670;5.808;2023-08-12T07:31:44;4.40;;;2.88;;
62584;SDS011;48643;51.670;5.808;2023-08-12T07:34:11;4.95;;;3.15;;
62584;SDS011;48643;51.670;5.808;2023-08-12T07:36:40;5.10;;;3.30;;
62584;SDS011;48643;51.670;5.808;2023-08-12T07:39:07;4.30;;;3.15;;
62584;SDS011;48643;51.670;5.808;2023-08-12T07:41:34;5.20;;;3.33;;
62584;SDS011;48643;51.670;5.808;2023-08-12T07:44:01;7.25;;;3.40;;
62584;SDS011;48643;51.670;5.808;2023-08-12T07:46:28;6.95;;;3.35;;
62584;SDS011;48643;51.670;5.808;2023-08-12T07:48:56;5.82;;;3.83;;
62584;SDS011;48643;51.670;5.808;2023-08-12T07:51:23;6.45;;;3.40;;
62584;SDS011;48643;51.670;5.808;2023-08-12T07:53:50;3.95;;;3.30;;
62584;SDS011;48643;51.670;5.808;2023-08-12T07:56:17;4.57;;;3.28;;
62584;SDS011;48643;51.670;5.808;2023-08-12T07:58:44;6.03;;;3.50;;
62584;SDS011;48643;51.670;5.808;2023-08-12T08:01:12;3.70;;;3.00;;
62584;SDS011;48643;51.670;5.808;2023-08-12T08:03:39;4.00;;;3.00;;
62584;SDS011;48643;51.670;5.808;2023-08-12T08:06:06;5.75;;;3.45;;
62584;SDS011;48643;51.670;5.808;2023-08-12T08:08:32;4.28;;;3.30;;
62584;SDS011;48643;51.670;5.808;2023-08-12T08:10:59;4.53;;;3.17;;
62584;SDS011;48643;51.670;5.808;2023-08-12T08:13:26;6.82;;;3.47;;
62584;SDS011;48643;51.670;5.808;2023-08-12T08:15:53;6.47;;;3.58;;
62584;SDS011;48643;51.670;5.808;2023-08-12T08:18:20;4.85;;;3.28;;
62584;SDS011;48643;51.670;5.808;2023-08-12T08:20:47;5.35;;;3.55;;
62584;SDS011;48643;51.670;5.808;2023-08-12T08:23:14;12.88;;;3.60;;
62584;SDS011;48643;51.670;5.808;2023-08-12T08:25:41;7.10;;;3.30;;
62584;SDS011;48643;51.670;5.808;2023-08-12T08:28:08;4.93;;;3.28;;
62584;SDS011;48643;51.670;5.808;2023-08-12T08:30:36;5.82;;;3.35;;
62584;SDS011;48643;51.670;5.808;2023-08-12T08:33:03;5.53;;;3.23;;
62584;SDS011;48643;51.670;5.808;2023-08-12T08:35:30;4.35;;;3.20;;
62584;SDS011;48643;51.670;5.808;2023-08-12T08:37:57;5.65;;;3.00;;
62584;SDS011;48643;51.670;5.808;2023-08-12T08:40:25;4.75;;;2.88;;
62584;SDS011;48643;51.670;5.808;2023-08-12T08:42:52;3.67;;;2.60;;
62584;SDS011;48643;51.670;5.808;2023-08-12T08:45:20;5.40;;;2.75;;
62584;SDS011;48643;51.670;5.808;2023-08-12T08:47:48;5.45;;;2.70;;
62584;SDS011;48643;51.670;5.808;2023-08-12T08:50:16;3.63;;;2.58;;
62584;SDS011;48643;51.670;5.808;2023-08-12T08:52:44;3.47;;;2.30;;
62584;SDS011;48643;51.670;5.808;2023-08-12T08:55:11;4.40;;;2.40;;
62584;SDS011;48643;51.670;5.808;2023-08-12T08:57:39;4.07;;;2.63;;
62584;SDS011;48643;51.670;5.808;2023-08-12T09:00:13;3.35;;;2.58;;
62584;SDS011;48643;51.670;5.808;2023-08-12T09:02:43;5.07;;;2.60;;
62584;SDS011;48643;51.670;5.808;2023-08-12T09:05:12;3.17;;;2.40;;
62584;SDS011;48643;51.670;5.808;2023-08-12T09:07:41;6.57;;;2.20;;
62584;SDS011;48643;51.670;5.808;2023-08-12T09:10:10;4.07;;;2.70;;
62584;SDS011;48643;51.670;5.808;2023-08-12T09:12:41;4.25;;;2.47;;
62584;SDS011;48643;51.670;5.808;2023-08-12T09:15:08;3.65;;;2.35;;
62584;SDS011;48643;51.670;5.808;2023-08-12T09:17:35;6.18;;;2.50;;
62584;SDS011;48643;51.670;5.808;2023-08-12T09:20:02;6.88;;;2.78;;
62584;SDS011;48643;51.670;5.808;2023-08-12T09:22:34;6.63;;;2.85;;
62584;SDS011;48643;51.670;5.808;2023-08-12T09:25:01;9.80;;;2.35;;
62584;SDS011;48643;51.670;5.808;2023-08-12T09:27:31;6.30;;;2.75;;
62584;SDS011;48643;51.670;5.808;2023-08-12T09:29:58;3.65;;;2.70;;
62584;SDS011;48643;51.670;5.808;2023-08-12T09:32:25;7.03;;;2.35;;
62584;SDS011;48643;51.670;5.808;2023-08-12T09:34:52;9.95;;;2.60;;
62584;SDS011;48643;51.670;5.808;2023-08-12T09:37:20;3.88;;;2.25;;
62584;SDS011;48643;51.670;5.808;2023-08-12T09:39:50;4.95;;;2.30;;
62584;SDS011;48643;51.670;5.808;2023-08-12T09:42:18;3.10;;;2.35;;
62584;SDS011;48643;51.670;5.808;2023-08-12T09:44:45;3.88;;;2.28;;
62584;SDS011;48643;51.670;5.808;2023-08-12T09:47:12;4.53;;;2.35;;
62584;SDS011;48643;51.670;5.808;2023-08-12T09:49:40;4.35;;;2.13;;
62584;SDS011;48643;51.670;5.808;2023-08-12T09:52:08;9.25;;;2.63;;
62584;SDS011;48643;51.670;5.808;2023-08-12T09:54:35;5.45;;;2.20;;
62584;SDS011;48643;51.670;5.808;2023-08-12T09:57:03;2.53;;;2.10;;
62584;SDS011;48643;51.670;5.808;2023-08-12T09:59:35;2.45;;;2.10;;
62584;SDS011;48643;51.670;5.808;2023-08-12T10:02:03;3.90;;;1.95;;
62584;SDS011;48643;51.670;5.808;2023-08-12T10:04:41;4.15;;;2.20;;
62584;SDS011;48643;51.670;5.808;2023-08-12T10:07:09;3.08;;;2.10;;
62584;SDS011;48643;51.670;5.808;2023-08-12T10:09:37;2.50;;;2.05;;
62584;SDS011;48643;51.670;5.808;2023-08-12T10:12:04;2.70;;;2.20;;
62584;SDS011;48643;51.670;5.808;2023-08-12T10:14:33;4.80;;;2.28;;
62584;SDS011;48643;51.670;5.808;2023-08-12T10:17:00;3.00;;;2.15;;
62584;SDS011;48643;51.670;5.808;2023-08-12T10:19:32;2.90;;;2.10;;
62584;SDS011;48643;51.670;5.808;2023-08-12T10:22:00;7.35;;;2.15;;
62584;SDS011;48643;51.670;5.808;2023-08-12T10:24:29;5.05;;;1.80;;
62584;SDS011;48643;51.670;5.808;2023-08-12T10:26:56;2.58;;;1.70;;
62584;SDS011;48643;51.670;5.808;2023-08-12T10:29:23;2.67;;;1.85;;
62584;SDS011;48643;51.670;5.808;2023-08-12T10:31:53;1.90;;;1.60;;
62584;SDS011;48643;51.670;5.808;2023-08-12T10:34:24;2.28;;;1.50;;
62584;SDS011;48643;51.670;5.808;2023-08-12T10:36:55;2.28;;;1.60;;
62584;SDS011;48643;51.670;5.808;2023-08-12T10:39:29;1.77;;;1.60;;
62584;SDS011;48643;51.670;5.808;2023-08-12T10:41:58;2.00;;;1.40;;
62584;SDS011;48643;51.670;5.808;2023-08-12T10:44:38;2.78;;;1.55;;
62584;SDS011;48643;51.670;5.808;2023-08-12T10:47:10;5.15;;;1.85;;
62584;SDS011;48643;51.670;5.808;2023-08-12T10:49:38;4.70;;;1.80;;
62584;SDS011;48643;51.670;5.808;2023-08-12T10:52:05;3.28;;;1.70;;
62584;SDS011;48643;51.670;5.808;2023-08-12T10:54:32;3.75;;;1.70;;
62584;SDS011;48643;51.670;5.808;2023-08-12T11:02:13;5.78;;;1.70;;
62584;SDS011;48643;51.670;5.808;2023-08-12T11:04:42;7.05;;;1.70;;
62584;SDS011;48643;51.670;5.808;2023-08-12T11:07:17;3.85;;;1.45;;
62584;SDS011;48643;51.670;5.808;2023-08-12T11:09:45;2.58;;;1.20;;
62584;SDS011;48643;51.670;5.808;2023-08-12T11:12:17;2.58;;;1.20;;
62584;SDS011;48643;51.670;5.808;2023-08-12T11:14:48;2.83;;;1.10;;
62584;SDS011;48643;51.670;5.808;2023-08-12T11:17:15;2.75;;;1.30;;
62584;SDS011;48643;51.670;5.808;2023-08-12T11:19:42;4.97;;;1.55;;
62584;SDS011;48643;51.670;5.808;2023-08-12T11:22:09;4.05;;;1.55;;
62584;SDS011;48643;51.670;5.808;2023-08-12T11:24:40;2.65;;;1.67;;
62584;SDS011;48643;51.670;5.808;2023-08-12T11:27:11;4.22;;;1.73;;
62584;SDS011;48643;51.670;5.808;2023-08-12T11:29:38;5.07;;;1.73;;
62584;SDS011;48643;51.670;5.808;2023-08-12T11:32:05;7.07;;;1.90;;
62584;SDS011;48643;51.670;5.808;2023-08-12T11:34:32;4.07;;;1.65;;
62584;SDS011;48643;51.670;5.808;2023-08-12T11:36:59;8.73;;;1.70;;
62584;SDS011;48643;51.670;5.808;2023-08-12T11:39:28;7.22;;;1.70;;
62584;SDS011;48643;51.670;5.808;2023-08-12T11:41:55;7.93;;;2.15;;
62584;SDS011;48643;51.670;5.808;2023-08-12T11:44:23;4.00;;;1.90;;
62584;SDS011;48643;51.670;5.808;2023-08-12T11:46:50;10.02;;;2.20;;
62584;SDS011;48643;51.670;5.808;2023-08-12T11:49:17;5.95;;;2.50;;
62584;SDS011;48643;51.670;5.808;2023-08-12T11:51:44;5.28;;;2.10;;
62584;SDS011;48643;51.670;5.808;2023-08-12T11:54:14;8.65;;;2.20;;
62584;SDS011;48643;51.670;5.808;2023-08-12T11:56:41;9.60;;;2.00;;
62584;SDS011;48643;51.670;5.808;2023-08-12T11:59:08;4.80;;;2.03;;
62584;SDS011;48643;51.670;5.808;2023-08-12T12:01:35;8.23;;;1.98;;
62584;SDS011;48643;51.670;5.808;2023-08-12T12:04:02;7.40;;;2.20;;
62584;SDS011;48643;51.670;5.808;2023-08-12T12:06:35;4.35;;;2.00;;
62584;SDS011;48643;51.670;5.808;2023-08-12T12:09:07;6.88;;;2.00;;
62584;SDS011;48643;51.670;5.808;2023-08-12T12:11:38;4.45;;;1.88;;
62584;SDS011;48643;51.670;5.808;2023-08-12T12:14:08;6.47;;;2.00;;
62584;SDS011;48643;51.670;5.808;2023-08-12T12:16:43;9.48;;;2.30;;
62584;SDS011;48643;51.670;5.808;2023-08-12T12:19:18;9.23;;;2.28;;
62584;SDS011;48643;51.670;5.808;2023-08-12T12:21:50;7.95;;;2.20;;
62584;SDS011;48643;51.670;5.808;2023-08-12T12:24:18;19.00;;;2.40;;
62584;SDS011;48643;51.670;5.808;2023-08-12T12:26:46;7.70;;;2.00;;
62584;SDS011;48643;51.670;5.808;2023-08-12T12:29:15;6.97;;;2.15;;
62584;SDS011;48643;51.670;5.808;2023-08-12T12:31:42;11.07;;;2.45;;
62584;SDS011;48643;51.670;5.808;2023-08-12T12:34:09;5.63;;;2.25;;
62584;SDS011;48643;51.670;5.808;2023-08-12T12:36:37;5.20;;;2.10;;
62584;SDS011;48643;51.670;5.808;2023-08-12T12:39:04;5.85;;;1.95;;
62584;SDS011;48643;51.670;5.808;2023-08-12T12:41:32;8.35;;;2.20;;
62584;SDS011;48643;51.670;5.808;2023-08-12T12:44:02;7.60;;;2.10;;
62584;SDS011;48643;51.670;5.808;2023-08-12T12:46:29;10.35;;;2.60;;
62584;SDS011;48643;51.670;5.808;2023-08-12T12:48:56;7.00;;;2.58;;
62584;SDS011;48643;51.670;5.808;2023-08-12T12:51:23;6.30;;;2.15;;
62584;SDS011;48643;51.670;5.808;2023-08-12T12:53:50;7.80;;;2.17;;
62584;SDS011;48643;51.670;5.808;2023-08-12T12:56:17;7.00;;;2.35;;
62584;SDS011;48643;51.670;5.808;2023-08-12T12:58:43;11.25;;;2.50;;
62584;SDS011;48643;51.670;5.808;2023-08-12T13:01:10;6.90;;;2.35;;
62584;SDS011;48643;51.670;5.808;2023-08-12T13:03:37;9.25;;;2.40;;
62584;SDS011;48643;51.670;5.808;2023-08-12T13:06:05;9.73;;;2.70;;
62584;SDS011;48643;51.670;5.808;2023-08-12T13:08:31;15.35;;;3.10;;
62584;SDS011;48643;51.670;5.808;2023-08-12T13:10:58;13.95;;;3.00;;
62584;SDS011;48643;51.670;5.808;2023-08-12T13:13:25;8.10;;;2.58;;
62584;SDS011;48643;51.670;5.808;2023-08-12T13:15:52;7.32;;;2.53;;
62584;SDS011;48643;51.670;5.808;2023-08-12T13:18:19;10.00;;;3.03;;
62584;SDS011;48643;51.670;5.808;2023-08-12T13:20:46;10.18;;;2.90;;
62584;SDS011;48643;51.670;5.808;2023-08-12T13:23:13;8.60;;;2.50;;
62584;SDS011;48643;51.670;5.808;2023-08-12T13:25:40;11.57;;;2.70;;
62584;SDS011;48643;51.670;5.808;2023-08-12T13:28:08;11.43;;;3.70;;
62584;SDS011;48643;51.670;5.808;2023-08-12T13:30:35;7.57;;;3.05;;
62584;SDS011;48643;51.670;5.808;2023-08-12T13:33:02;9.52;;;2.95;;
62584;SDS011;48643;51.670;5.808;2023-08-12T13:35:29;10.00;;;3.90;;
62584;SDS011;48643;51.670;5.808;2023-08-12T13:37:56;9.45;;;3.15;;
62584;SDS011;48643;51.670;5.808;2023-08-12T13:40:23;11.82;;;3.03;;
62584;SDS011;48643;51.670;5.808;2023-08-12T13:42:50;7.85;;;2.97;;
62584;SDS011;48643;51.670;5.808;2023-08-12T13:45:17;8.38;;;2.70;;
62584;SDS011;48643;51.670;5.808;2023-08-12T13:47:44;8.80;;;2.80;;
62584;SDS011;48643;51.670;5.808;2023-08-12T13:50:11;12.18;;;3.00;;
62584;SDS011;48643;51.670;5.808;2023-08-12T13:52:39;8.35;;;2.45;;
62584;SDS011;48643;51.670;5.808;2023-08-12T13:57:35;7.68;;;2.60;;
62584;SDS011;48643;51.670;5.808;2023-08-12T14:00:02;12.13;;;3.10;;
62584;SDS011;48643;51.670;5.808;2023-08-12T14:02:38;8.85;;;2.80;;
62584;SDS011;48643;51.670;5.808;2023-08-12T14:05:06;7.32;;;2.58;;
62584;SDS011;48643;51.670;5.808;2023-08-12T14:07:33;12.30;;;2.80;;
62584;SDS011;48643;51.670;5.808;2023-08-12T14:10:00;14.30;;;2.70;;
62584;SDS011;48643;51.670;5.808;2023-08-12T14:12:27;11.43;;;2.80;;
62584;SDS011;48643;51.670;5.808;2023-08-12T14:14:54;11.25;;;2.70;;
62584;SDS011;48643;51.670;5.808;2023-08-12T14:17:21;7.45;;;2.70;;
62584;SDS011;48643;51.670;5.808;2023-08-12T14:19:49;9.18;;;2.53;;
62584;SDS011;48643;51.670;5.808;2023-08-12T14:22:17;7.55;;;2.45;;
62584;SDS011;48643;51.670;5.808;2023-08-12T14:24:44;10.82;;;2.80;;
62584;SDS011;48643;51.670;5.808;2023-08-12T14:27:11;9.10;;;2.50;;
62584;SDS011;48643;51.670;5.808;2023-08-12T14:29:39;11.93;;;2.47;;
62584;SDS011;48643;51.670;5.808;2023-08-12T14:32:05;7.70;;;2.65;;
62584;SDS011;48643;51.670;5.808;2023-08-12T14:34:32;9.73;;;2.55;;
62584;SDS011;48643;51.670;5.808;2023-08-12T14:36:59;8.88;;;2.50;;
62584;SDS011;48643;51.670;5.808;2023-08-12T14:39:27;7.75;;;2.80;;
62584;SDS011;48643;51.670;5.808;2023-08-12T14:41:54;9.48;;;2.80;;
62584;SDS011;48643;51.670;5.808;2023-08-12T14:44:21;12.52;;;3.40;;
62584;SDS011;48643;51.670;5.808;2023-08-12T14:46:48;9.10;;;2.90;;
62584;SDS011;48643;51.670;5.808;2023-08-12T14:49:15;6.60;;;2.53;;
62584;SDS011;48643;51.670;5.808;2023-08-12T14:51:42;10.63;;;2.65;;
62584;SDS011;48643;51.670;5.808;2023-08-12T14:54:08;11.30;;;2.80;;
62584;SDS011;48643;51.670;5.808;2023-08-12T14:56:35;9.48;;;2.65;;
62584;SDS011;48643;51.670;5.808;2023-08-12T14:59:02;10.75;;;2.90;;
62584;SDS011;48643;51.670;5.808;2023-08-12T15:01:30;9.68;;;2.58;;